Ellen Mcallister — WDG3673 — position and weather

sailwx.info

Track history (hours):
 
Tides and Currents Weather Stations Pressure Air Temp Water Temp Dewpoint Dewpoint Depression Visibility Wind Speed Wind Dir Waves Ship Positions

Ellen Mcallister

Owner: McAllister Towing & Transportation Inc., Staten Island, NY. More information available from US FCC via Universal Licensing System and Coast Guard Vessel Documentation Center.

Last reported at 2017-Apr-27 06:52 UTC. Time now 2017-Apr-27 07:25 UTC.
Position N 40°38' W 074°04'.

Length 35 m; draft 5 m.

Type: Tug. MMSI: 366836590.

Date/timePositionNaut miles runAvg speedWind from/ knotsBaromVisibWave heightAir tempDewpointWater temp
2017-Apr-27 06:52N 40°38' W 074°04'0 0.0
2017-Apr-27 06:30N 40°38' W 074°04'1 0.5
2017-Apr-27 04:49N 40°39' W 074°04'1 3.9
2017-Apr-27 04:30N 40°40' W 074°04'1 2.2
2017-Apr-27 03:58N 40°40' W 074°05'0 0.2
2017-Apr-27 03:30N 40°40' W 074°05'1 0.5
2017-Apr-27 01:00N 40°39' W 074°05'3 0.4
2017-Apr-26 16:14N 40°41' W 074°09'4 0.7
2017-Apr-26 10:48N 40°39' W 074°04'1 2.5
2017-Apr-26 10:28N 40°40' W 074°04'1 0.8
2017-Apr-26 09:36N 40°40' W 074°05'0 1.1
2017-Apr-26 09:30N 40°40' W 074°05'0 0.2
2017-Apr-26 08:56N 40°40' W 074°05'0 0.0
2017-Apr-26 08:30N 40°40' W 074°05'0 0.0
2017-Apr-26 08:00N 40°40' W 074°05'0 0.0
2017-Apr-26 07:30N 40°40' W 074°05'0 0.0
2017-Apr-26 07:00N 40°40' W 074°05'0 0.0
2017-Apr-26 06:30N 40°40' W 074°05'0 0.0
2017-Apr-26 05:59N 40°40' W 074°05'0 0.0
2017-Apr-26 05:29N 40°40' W 074°05'0 0.0
2017-Apr-26 05:00N 40°40' W 074°05'0 0.0
2017-Apr-26 04:30N 40°40' W 074°05'0 0.0
2017-Apr-26 04:00N 40°40' W 074°05'0 0.0
2017-Apr-26 03:23N 40°40' W 074°05'0 0.0
2017-Apr-26 02:39N 40°40' W 074°05'0 0.0
2017-Apr-26 02:30N 40°40' W 074°05'0 0.3
2017-Apr-26 01:57N 40°40' W 074°05'0 0.5
2017-Apr-26 01:28N 40°40' W 074°05'3 6.1
2017-Apr-26 01:00N 40°38' W 074°03'2 3.7
2017-Apr-26 00:30N 40°40' W 074°04'1 1.4
2017-Apr-26 00:00N 40°40' W 074°04'0 0.2
2017-Apr-25 23:30N 40°40' W 074°04'0 0.1
2017-Apr-25 23:00N 40°40' W 074°04'0 0.0
2017-Apr-25 22:30N 40°40' W 074°04'1 0.3
2017-Apr-25 19:26N 40°39' W 074°05'4 9.2
2017-Apr-25 19:00N 40°42' W 074°01'1 1.3
2017-Apr-25 18:30N 40°41' W 074°00'0 0.2
2017-Apr-25 18:00N 40°41' W 074°00'6 1.3
2017-Apr-25 13:11N 40°41' W 074°09'0 0.1
2017-Apr-25 13:00N 40°41' W 074°09'1 0.1
2017-Apr-25 06:07N 40°40' W 074°09'1 6.9
2017-Apr-25 06:00N 40°40' W 074°08'0 0.2
2017-Apr-25 05:26N 40°41' W 074°08'0 0.0
2017-Apr-25 04:59N 40°41' W 074°08'0 0.2
2017-Apr-25 04:29N 40°40' W 074°08'0 0.0
2017-Apr-25 04:00N 40°40' W 074°08'0 0.0
2017-Apr-25 03:29N 40°40' W 074°08'0 0.0
2017-Apr-25 02:56N 40°40' W 074°08'0 0.0
2017-Apr-25 02:15N 40°40' W 074°08'3 3.2
2017-Apr-25 01:14N 40°39' W 074°04'1 2.3
2017-Apr-25 01:00N 40°40' W 074°04'0 0.1
2017-Apr-25 00:30N 40°40' W 074°04'3 2.6
2017-Apr-24 23:18N 40°40' W 074°08'1 0.2
2017-Apr-24 16:44N 40°41' W 074°08'1 0.1
2017-Apr-23 22:01N 40°40' W 074°08'0 6.3
2017-Apr-23 21:59N 40°40' W 074°08'0 0.1
2017-Apr-23 21:30N 40°40' W 074°08'3 3.0
2017-Apr-23 20:36N 40°39' W 074°05'1 7.1
2017-Apr-23 20:29N 40°39' W 074°04'0 0.8
2017-Apr-23 19:56N 40°39' W 074°04'4 0.3
2017-Apr-23 06:23N 40°40' W 074°08'0 0.3
2017-Apr-23 05:52N 40°40' W 074°09'0 0.0
2017-Apr-23 05:30N 40°40' W 074°09'1 0.1
2017-Apr-22 20:57N 40°40' W 074°08'2 0.3
2017-Apr-22 13:25N 40°39' W 074°05'3 0.8
2017-Apr-22 10:02N 40°40' W 074°09'0 0.0
2017-Apr-22 10:00N 40°40' W 074°09'0 0.1
2017-Apr-22 09:22N 40°40' W 074°09'3 3.7
2017-Apr-22 08:25N 40°39' W 074°04'1 0.5
2017-Apr-22 07:24N 40°39' W 074°04'1 1.1
2017-Apr-22 06:26N 40°40' W 074°04'1 1.7
2017-Apr-22 06:00N 40°40' W 074°05'0 0.6
2017-Apr-22 05:28N 40°40' W 074°04'4 5.7
2017-Apr-22 04:44N 40°36' W 074°03'2 6.6
2017-Apr-22 04:25N 40°38' W 074°03'2 0.1
2017-Apr-21 17:21N 40°40' W 074°04'4 9.8
2017-Apr-21 16:57N 40°42' W 073°60'2 0.6
2017-Apr-21 12:43N 40°44' W 073°58'1 7.2
2017-Apr-21 12:30N 40°43' W 073°58'4 7.1
2017-Apr-21 12:00N 40°40' W 074°02'5 3.1
2017-Apr-21 10:27N 40°40' W 074°08'0 0.2
2017-Apr-21 09:48N 40°40' W 074°08'3 3.4
2017-Apr-21 08:47N 40°39' W 074°04'2 5.1
2017-Apr-21 08:29N 40°38' W 074°03'1 0.6
2017-Apr-21 07:27N 40°38' W 074°04'4 4.0
2017-Apr-21 06:28N 40°40' W 074°08'1 0.5
2017-Apr-21 05:13N 40°41' W 074°08'3 0.9
2017-Apr-21 01:51N 40°39' W 074°05'1 2.8
2017-Apr-21 01:30N 40°40' W 074°04'0 0.0
2017-Apr-21 01:00N 40°40' W 074°04'0 0.0
2017-Apr-21 00:30N 40°40' W 074°04'0 0.0
2017-Apr-21 00:00N 40°40' W 074°04'0 0.0
2017-Apr-20 23:30N 40°40' W 074°04'0 0.0
2017-Apr-20 23:00N 40°40' W 074°04'0 0.0
2017-Apr-20 22:30N 40°40' W 074°04'0 0.0
2017-Apr-20 22:00N 40°40' W 074°04'0 0.0
2017-Apr-20 21:30N 40°40' W 074°04'0 0.0
2017-Apr-20 21:00N 40°40' W 074°04'0 0.6
2017-Apr-20 20:30N 40°40' W 074°04'4 7.7
2017-Apr-20 19:59N 40°42' W 073°60'3 0.6
2017-Apr-20 14:15N 40°45' W 073°58'5 7.1
2017-Apr-20 13:30N 40°41' W 074°01'3 0.4
2017-Apr-20 05:59N 40°39' W 074°04'1 1.5
2017-Apr-20 05:28N 40°39' W 074°04'4 0.5
2017-Apr-19 22:31N 40°40' W 074°08'3 6.4
2017-Apr-19 22:04N 40°40' W 074°04'1 8.1
2017-Apr-19 21:59N 40°40' W 074°05'0 0.2
2017-Apr-19 21:30N 40°40' W 074°05'2 3.0
2017-Apr-19 20:59N 40°40' W 074°03'4 8.1
2017-Apr-19 20:30N 40°43' W 073°58'0 0.3
2017-Apr-19 20:00N 40°42' W 073°58'1 2.0
2017-Apr-19 19:30N 40°42' W 073°60'2 4.8
2017-Apr-19 19:00N 40°40' W 074°01'2 0.9
2017-Apr-19 16:57N 40°40' W 074°04'0 0.7
2017-Apr-19 16:30N 40°40' W 074°04'1 1.7
2017-Apr-19 16:00N 40°40' W 074°05'1 0.0
2017-Apr-18 03:25N 40°39' W 074°04'4 3.9
2017-Apr-18 02:31N 40°40' W 074°08'0 0.3
2017-Apr-18 02:30N 40°40' W 074°08'4 3.2
2017-Apr-18 01:17N 40°39' W 074°04'1 1.7
2017-Apr-18 00:48N 40°38' W 074°03'4 0.4
2017-Apr-17 12:48N 40°39' W 074°09'2 1.2
2017-Apr-17 11:06N 40°41' W 074°08'1 7.1
2017-Apr-17 10:59N 40°40' W 074°08'3 1.9
2017-Apr-17 09:30N 40°39' W 074°05'1 2.0
2017-Apr-17 09:00N 40°40' W 074°04'0 0.5
2017-Apr-17 08:30N 40°40' W 074°04'0 0.0
2017-Apr-17 07:59N 40°40' W 074°04'3 7.0
2017-Apr-17 07:30N 40°42' W 074°00'2 3.6
2017-Apr-17 07:00N 40°42' W 073°58'  
Track history (hours):
 
Tides and Currents Weather Stations Pressure Air Temp Water Temp Dewpoint Dewpoint Depression Visibility Wind Speed Wind Dir Waves Ship Positions

Ellen Mcallister

Owner: McAllister Towing & Transportation Inc., Staten Island, NY. More information available from US FCC via Universal Licensing System and Coast Guard Vessel Documentation Center.

Last reported at 2017-Apr-27 06:52 UTC. Time now 2017-Apr-27 07:25 UTC.
Position N 40°38' W 074°04'.

Length 35 m; draft 5 m.

Type: Tug. MMSI: 366836590.

Date/timePositionNaut miles runAvg speedWind from/ knotsBaromVisibWave heightAir tempDewpointWater temp
2017-Apr-27 06:52N 40°38' W 074°04'0 0.0
2017-Apr-27 06:30N 40°38' W 074°04'1 0.5
2017-Apr-27 04:49N 40°39' W 074°04'1 3.9
2017-Apr-27 04:30N 40°40' W 074°04'1 2.2
2017-Apr-27 03:58N 40°40' W 074°05'0 0.2
2017-Apr-27 03:30N 40°40' W 074°05'1 0.5
2017-Apr-27 01:00N 40°39' W 074°05'3 0.4
2017-Apr-26 16:14N 40°41' W 074°09'4 0.7
2017-Apr-26 10:48N 40°39' W 074°04'1 2.5
2017-Apr-26 10:28N 40°40' W 074°04'1 0.8
2017-Apr-26 09:36N 40°40' W 074°05'0 1.1
2017-Apr-26 09:30N 40°40' W 074°05'0 0.2
2017-Apr-26 08:56N 40°40' W 074°05'0 0.0
2017-Apr-26 08:30N 40°40' W 074°05'0 0.0
2017-Apr-26 08:00N 40°40' W 074°05'0 0.0
2017-Apr-26 07:30N 40°40' W 074°05'0 0.0
2017-Apr-26 07:00N 40°40' W 074°05'0 0.0
2017-Apr-26 06:30N 40°40' W 074°05'0 0.0
2017-Apr-26 05:59N 40°40' W 074°05'0 0.0
2017-Apr-26 05:29N 40°40' W 074°05'0 0.0
2017-Apr-26 05:00N 40°40' W 074°05'0 0.0
2017-Apr-26 04:30N 40°40' W 074°05'0 0.0
2017-Apr-26 04:00N 40°40' W 074°05'0 0.0
2017-Apr-26 03:23N 40°40' W 074°05'0 0.0
2017-Apr-26 02:39N 40°40' W 074°05'0 0.0
2017-Apr-26 02:30N 40°40' W 074°05'0 0.3
2017-Apr-26 01:57N 40°40' W 074°05'0 0.5
2017-Apr-26 01:28N 40°40' W 074°05'3 6.1
2017-Apr-26 01:00N 40°38' W 074°03'2 3.7
2017-Apr-26 00:30N 40°40' W 074°04'1 1.4
2017-Apr-26 00:00N 40°40' W 074°04'0 0.2
2017-Apr-25 23:30N 40°40' W 074°04'0 0.1
2017-Apr-25 23:00N 40°40' W 074°04'0 0.0
2017-Apr-25 22:30N 40°40' W 074°04'1 0.3
2017-Apr-25 19:26N 40°39' W 074°05'4 9.2
2017-Apr-25 19:00N 40°42' W 074°01'1 1.3
2017-Apr-25 18:30N 40°41' W 074°00'0 0.2
2017-Apr-25 18:00N 40°41' W 074°00'6 1.3
2017-Apr-25 13:11N 40°41' W 074°09'0 0.1
2017-Apr-25 13:00N 40°41' W 074°09'1 0.1
2017-Apr-25 06:07N 40°40' W 074°09'1 6.9
2017-Apr-25 06:00N 40°40' W 074°08'0 0.2
2017-Apr-25 05:26N 40°41' W 074°08'0 0.0
2017-Apr-25 04:59N 40°41' W 074°08'0 0.2
2017-Apr-25 04:29N 40°40' W 074°08'0 0.0
2017-Apr-25 04:00N 40°40' W 074°08'0 0.0
2017-Apr-25 03:29N 40°40' W 074°08'0 0.0
2017-Apr-25 02:56N 40°40' W 074°08'0 0.0
2017-Apr-25 02:15N 40°40' W 074°08'3 3.2
2017-Apr-25 01:14N 40°39' W 074°04'1 2.3
2017-Apr-25 01:00N 40°40' W 074°04'0 0.1
2017-Apr-25 00:30N 40°40' W 074°04'3 2.6
2017-Apr-24 23:18N 40°40' W 074°08'1 0.2
2017-Apr-24 16:44N 40°41' W 074°08'1 0.1
2017-Apr-23 22:01N 40°40' W 074°08'0 6.3
2017-Apr-23 21:59N 40°40' W 074°08'0 0.1
2017-Apr-23 21:30N 40°40' W 074°08'3 3.0
2017-Apr-23 20:36N 40°39' W 074°05'1 7.1
2017-Apr-23 20:29N 40°39' W 074°04'0 0.8
2017-Apr-23 19:56N 40°39' W 074°04'4 0.3
2017-Apr-23 06:23N 40°40' W 074°08'0 0.3
2017-Apr-23 05:52N 40°40' W 074°09'0 0.0
2017-Apr-23 05:30N 40°40' W 074°09'1 0.1
2017-Apr-22 20:57N 40°40' W 074°08'2 0.3
2017-Apr-22 13:25N 40°39' W 074°05'3 0.8
2017-Apr-22 10:02N 40°40' W 074°09'0 0.0
2017-Apr-22 10:00N 40°40' W 074°09'0 0.1
2017-Apr-22 09:22N 40°40' W 074°09'3 3.7
2017-Apr-22 08:25N 40°39' W 074°04'1 0.5
2017-Apr-22 07:24N 40°39' W 074°04'1 1.1
2017-Apr-22 06:26N 40°40' W 074°04'1 1.7
2017-Apr-22 06:00N 40°40' W 074°05'0 0.6
2017-Apr-22 05:28N 40°40' W 074°04'4 5.7
2017-Apr-22 04:44N 40°36' W 074°03'2 6.6
2017-Apr-22 04:25N 40°38' W 074°03'2 0.1
2017-Apr-21 17:21N 40°40' W 074°04'4 9.8
2017-Apr-21 16:57N 40°42' W 073°60'2 0.6
2017-Apr-21 12:43N 40°44' W 073°58'1 7.2
2017-Apr-21 12:30N 40°43' W 073°58'4 7.1
2017-Apr-21 12:00N 40°40' W 074°02'5 3.1
2017-Apr-21 10:27N 40°40' W 074°08'0 0.2
2017-Apr-21 09:48N 40°40' W 074°08'3 3.4
2017-Apr-21 08:47N 40°39' W 074°04'2 5.1
2017-Apr-21 08:29N 40°38' W 074°03'1 0.6
2017-Apr-21 07:27N 40°38' W 074°04'4 4.0
2017-Apr-21 06:28N 40°40' W 074°08'1 0.5
2017-Apr-21 05:13N 40°41' W 074°08'3 0.9
2017-Apr-21 01:51N 40°39' W 074°05'1 2.8
2017-Apr-21 01:30N 40°40' W 074°04'0 0.0
2017-Apr-21 01:00N 40°40' W 074°04'0 0.0
2017-Apr-21 00:30N 40°40' W 074°04'0 0.0
2017-Apr-21 00:00N 40°40' W 074°04'0 0.0
2017-Apr-20 23:30N 40°40' W 074°04'0 0.0
2017-Apr-20 23:00N 40°40' W 074°04'0 0.0
2017-Apr-20 22:30N 40°40' W 074°04'0 0.0
2017-Apr-20 22:00N 40°40' W 074°04'0 0.0
2017-Apr-20 21:30N 40°40' W 074°04'0 0.0
2017-Apr-20 21:00N 40°40' W 074°04'0 0.6
2017-Apr-20 20:30N 40°40' W 074°04'4 7.7
2017-Apr-20 19:59N 40°42' W 073°60'3 0.6
2017-Apr-20 14:15N 40°45' W 073°58'5 7.1
2017-Apr-20 13:30N 40°41' W 074°01'3 0.4
2017-Apr-20 05:59N 40°39' W 074°04'1 1.5
2017-Apr-20 05:28N 40°39' W 074°04'4 0.5
2017-Apr-19 22:31N 40°40' W 074°08'3 6.4
2017-Apr-19 22:04N 40°40' W 074°04'1 8.1
2017-Apr-19 21:59N 40°40' W 074°05'0 0.2
2017-Apr-19 21:30N 40°40' W 074°05'2 3.0
2017-Apr-19 20:59N 40°40' W 074°03'4 8.1
2017-Apr-19 20:30N 40°43' W 073°58'0 0.3
2017-Apr-19 20:00N 40°42' W 073°58'1 2.0
2017-Apr-19 19:30N 40°42' W 073°60'2 4.8
2017-Apr-19 19:00N 40°40' W 074°01'2 0.9
2017-Apr-19 16:57N 40°40' W 074°04'0 0.7
2017-Apr-19 16:30N 40°40' W 074°04'1 1.7
2017-Apr-19 16:00N 40°40' W 074°05'1 0.0
2017-Apr-18 03:25N 40°39' W 074°04'4 3.9
2017-Apr-18 02:31N 40°40' W 074°08'0 0.3
2017-Apr-18 02:30N 40°40' W 074°08'4 3.2
2017-Apr-18 01:17N 40°39' W 074°04'1 1.7
2017-Apr-18 00:48N 40°38' W 074°03'4 0.4
2017-Apr-17 12:48N 40°39' W 074°09'2 1.2
2017-Apr-17 11:06N 40°41' W 074°08'1 7.1
2017-Apr-17 10:59N 40°40' W 074°08'3 1.9
2017-Apr-17 09:30N 40°39' W 074°05'1 2.0
2017-Apr-17 09:00N 40°40' W 074°04'0 0.5
2017-Apr-17 08:30N 40°40' W 074°04'0 0.0
2017-Apr-17 07:59N 40°40' W 074°04'3 7.0
2017-Apr-17 07:30N 40°42' W 074°00'2 3.6
2017-Apr-17 07:00N 40°42' W 073°58'  

Dump ship's entire track history